Welkenraedt, Belgium
Current Conditions -  °F | °C
As of 8:25 AM on Saturday 20 Dec 2014 (Local Time) from EBLB Reporting Station
Broken Clouds Broken Clouds  
Wind Chill: 27°   Ceiling: 1000
Heat Index: 36°   Visibility: 6mi
Dew Point: 34°   Wind: 14mph
Humidity: 93%   Direction: 260°W
Pressure: 30.15"   Gusts: NA
Location:  50.66°N, 5.97°E
Report Text: EBLB 200725Z AUTO 26012KT 9999 FEW005/// SCT007/// BKN010/// 02/01 Q1021 GRN
Loading
Personal Weather Stations






























Interactive Weather Map New forecast layout! Learn more

10-Day Weather Forecast

Advertisements
Track Severe Weather on mobile